sensor_id;sensor_type;location;lat;lon;timestamp;pressure;altitude;pressure_sealevel;temperature
43802;BMP280;29429;51.074;13.764;2023-05-10T00:02:01;99502.03;;;13.54
43802;BMP280;29429;51.074;13.764;2023-05-10T00:04:28;99504.47;;;13.56
43802;BMP280;29429;51.074;13.764;2023-05-10T00:06:56;99494.00;;;13.54
43802;BMP280;29429;51.074;13.764;2023-05-10T00:09:26;99493.75;;;13.56
43802;BMP280;29429;51.074;13.764;2023-05-10T00:11:57;99492.59;;;13.52
43802;BMP280;29429;51.074;13.764;2023-05-10T00:14:26;99500.06;;;13.50
43802;BMP280;29429;51.074;13.764;2023-05-10T00:17:00;99492.22;;;13.48
43802;BMP280;29429;51.074;13.764;2023-05-10T00:19:28;99491.88;;;13.45
43802;BMP280;29429;51.074;13.764;2023-05-10T00:22:17;99495.84;;;13.42
43802;BMP280;29429;51.074;13.764;2023-05-10T00:24:48;99489.88;;;13.40
43802;BMP280;29429;51.074;13.764;2023-05-10T00:27:28;99487.91;;;13.35
43802;BMP280;29429;51.074;13.764;2023-05-10T00:30:05;99489.16;;;13.33
43802;BMP280;29429;51.074;13.764;2023-05-10T00:36:22;99484.38;;;13.23
43802;BMP280;29429;51.074;13.764;2023-05-10T00:43:37;99477.00;;;13.07
43802;BMP280;29429;51.074;13.764;2023-05-10T00:46:38;99480.09;;;13.04
43802;BMP280;29429;51.074;13.764;2023-05-10T00:49:11;99474.34;;;13.01
43802;BMP280;29429;51.074;13.764;2023-05-10T00:51:38;99476.22;;;13.00
43802;BMP280;29429;51.074;13.764;2023-05-10T00:54:09;99476.44;;;12.99
43802;BMP280;29429;51.074;13.764;2023-05-10T00:56:45;99476.06;;;12.95
43802;BMP280;29429;51.074;13.764;2023-05-10T01:00:06;99469.19;;;12.88
43802;BMP280;29429;51.074;13.764;2023-05-10T01:02:53;99472.09;;;12.86
43802;BMP280;29429;51.074;13.764;2023-05-10T01:05:31;99467.19;;;12.83
43802;BMP280;29429;51.074;13.764;2023-05-10T01:07:59;99466.81;;;12.79
43802;BMP280;29429;51.074;13.764;2023-05-10T01:10:52;99464.97;;;12.80
43802;BMP280;29429;51.074;13.764;2023-05-10T01:14:13;99463.19;;;12.74
43802;BMP280;29429;51.074;13.764;2023-05-10T01:20:46;99470.94;;;12.64
43802;BMP280;29429;51.074;13.764;2023-05-10T01:23:57;99465.44;;;12.59
43802;BMP280;29429;51.074;13.764;2023-05-10T01:27:02;99472.88;;;12.57
43802;BMP280;29429;51.074;13.764;2023-05-10T01:30:10;99471.69;;;12.53
43802;BMP280;29429;51.074;13.764;2023-05-10T01:40:04;99458.59;;;12.45
43802;BMP280;29429;51.074;13.764;2023-05-10T01:46:35;99450.53;;;12.33
43802;BMP280;29429;51.074;13.764;2023-05-10T01:49:43;99454.75;;;12.23
43802;BMP280;29429;51.074;13.764;2023-05-10T01:52:53;99451.03;;;12.23
43802;BMP280;29429;51.074;13.764;2023-05-10T01:55:54;99458.03;;;12.25
43802;BMP280;29429;51.074;13.764;2023-05-10T01:58:30;99454.75;;;12.23
43802;BMP280;29429;51.074;13.764;2023-05-10T02:04:09;99455.66;;;12.16
43802;BMP280;29429;51.074;13.764;2023-05-10T02:06:40;99455.66;;;12.16
43802;BMP280;29429;51.074;13.764;2023-05-10T02:09:52;99452.38;;;12.14
43802;BMP280;29429;51.074;13.764;2023-05-10T02:12:54;99449.13;;;12.12
43802;BMP280;29429;51.074;13.764;2023-05-10T02:16:05;99451.19;;;12.10
43802;BMP280;29429;51.074;13.764;2023-05-10T02:21:39;99449.84;;;12.01
43802;BMP280;29429;51.074;13.764;2023-05-10T02:24:47;99450.88;;;12.00
43802;BMP280;29429;51.074;13.764;2023-05-10T02:27:41;99448.22;;;12.00
43802;BMP280;29429;51.074;13.764;2023-05-10T02:30:13;99446.56;;;11.99
43802;BMP280;29429;51.074;13.764;2023-05-10T02:33:30;99446.34;;;12.01
43802;BMP280;29429;51.074;13.764;2023-05-10T02:36:14;99446.94;;;12.03
43802;BMP280;29429;51.074;13.764;2023-05-10T02:38:52;99448.34;;;12.05
43802;BMP280;29429;51.074;13.764;2023-05-10T02:41:36;99440.78;;;12.02
43802;BMP280;29429;51.074;13.764;2023-05-10T02:44:14;99441.41;;;12.04
43802;BMP280;29429;51.074;13.764;2023-05-10T02:47:27;99447.19;;;12.01
43802;BMP280;29429;51.074;13.764;2023-05-10T02:50:27;99448.59;;;12.04
43802;BMP280;29429;51.074;13.764;2023-05-10T02:53:01;99442.66;;;12.02
43802;BMP280;29429;51.074;13.764;2023-05-10T02:55:52;99437.31;;;12.02
43802;BMP280;29429;51.074;13.764;2023-05-10T02:58:46;99433.81;;;12.01
43802;BMP280;29429;51.074;13.764;2023-05-10T03:01:16;99435.28;;;11.97
43802;BMP280;29429;51.074;13.764;2023-05-10T03:04:13;99442.28;;;11.98
43802;BMP280;29429;51.074;13.764;2023-05-10T03:06:41;99444.72;;;12.00
43802;BMP280;29429;51.074;13.764;2023-05-10T03:09:09;99447.19;;;12.01
43802;BMP280;29429;51.074;13.764;2023-05-10T03:12:11;99447.19;;;12.01
43802;BMP280;29429;51.074;13.764;2023-05-10T03:17:41;99447.22;;;11.95
43802;BMP280;29429;51.074;13.764;2023-05-10T03:20:24;99444.34;;;11.96
43802;BMP280;29429;51.074;13.764;2023-05-10T03:25:55;99446.41;;;11.94
43802;BMP280;29429;51.074;13.764;2023-05-10T03:28:48;99441.69;;;11.96
43802;BMP280;29429;51.074;13.764;2023-05-10T03:31:31;99446.78;;;11.98
43802;BMP280;29429;51.074;13.764;2023-05-10T03:34:02;99444.34;;;11.96
43802;BMP280;29429;51.074;13.764;2023-05-10T03:36:50;99440.63;;;11.97
43802;BMP280;29429;51.074;13.764;2023-05-10T03:39:23;99433.66;;;11.96
43802;BMP280;29429;51.074;13.764;2023-05-10T03:41:58;99432.59;;;11.97
43802;BMP280;29429;51.074;13.764;2023-05-10T03:44:35;99432.16;;;12.00
43802;BMP280;29429;51.074;13.764;2023-05-10T03:47:07;99422.88;;;12.03
43802;BMP280;29429;51.074;13.764;2023-05-10T03:49:45;99423.13;;;12.01
43802;BMP280;29429;51.074;13.764;2023-05-10T03:52:26;99421.63;;;12.05
43802;BMP280;29429;51.074;13.764;2023-05-10T03:59:16;99444.41;;;12.08
43802;BMP280;29429;51.074;13.764;2023-05-10T04:01:33;99447.47;;;12.11
43802;BMP280;29429;51.074;13.764;2023-05-10T04:04:17;99449.56;;;12.09
43802;BMP280;29429;51.074;13.764;2023-05-10T04:06:55;99449.91;;;12.13
43802;BMP280;29429;51.074;13.764;2023-05-10T04:09:31;99449.28;;;12.17
43802;BMP280;29429;51.074;13.764;2023-05-10T04:12:06;99448.00;;;12.20
43802;BMP280;29429;51.074;13.764;2023-05-10T04:14:37;99446.75;;;12.23
43802;BMP280;29429;51.074;13.764;2023-05-10T04:17:26;99454.91;;;12.28
43802;BMP280;29429;51.074;13.764;2023-05-10T04:20:11;99455.50;;;12.30
43802;BMP280;29429;51.074;13.764;2023-05-10T04:22:51;99442.50;;;12.33
43802;BMP280;29429;51.074;13.764;2023-05-10T04:28:25;99448.22;;;12.37
43802;BMP280;29429;51.074;13.764;2023-05-10T04:34:28;99444.44;;;12.44
43802;BMP280;29429;51.074;13.764;2023-05-10T04:36:58;99452.81;;;12.48
43802;BMP280;29429;51.074;13.764;2023-05-10T04:40:06;99456.06;;;12.50
43802;BMP280;29429;51.074;13.764;2023-05-10T04:42:37;99450.28;;;12.53
43802;BMP280;29429;51.074;13.764;2023-05-10T04:45:09;99444.03;;;12.59
43802;BMP280;29429;51.074;13.764;2023-05-10T04:47:38;99436.16;;;12.64
43802;BMP280;29429;51.074;13.764;2023-05-10T04:50:09;99439.53;;;12.71
43802;BMP280;29429;51.074;13.764;2023-05-10T04:52:41;99430.25;;;12.73
43802;BMP280;29429;51.074;13.764;2023-05-10T04:55:11;99426.09;;;12.77
43802;BMP280;29429;51.074;13.764;2023-05-10T04:57:38;99429.72;;;12.83
43802;BMP280;29429;51.074;13.764;2023-05-10T05:00:10;99435.44;;;12.87
43802;BMP280;29429;51.074;13.764;2023-05-10T05:02:44;99436.38;;;12.92
43802;BMP280;29429;51.074;13.764;2023-05-10T05:05:26;99422.53;;;12.95
43802;BMP280;29429;51.074;13.764;2023-05-10T05:08:20;99428.84;;;13.01
43802;BMP280;29429;51.074;13.764;2023-05-10T05:10:48;99431.91;;;13.04
43802;BMP280;29429;51.074;13.764;2023-05-10T05:13:43;99433.69;;;13.10
43802;BMP280;29429;51.074;13.764;2023-05-10T05:16:21;99433.81;;;13.15
43802;BMP280;29429;51.074;13.764;2023-05-10T05:18:57;99440.34;;;13.19
43802;BMP280;29429;51.074;13.764;2023-05-10T05:21:25;99434.66;;;13.27
43802;BMP280;29429;51.074;13.764;2023-05-10T05:23:54;99432.09;;;13.32
43802;BMP280;29429;51.074;13.764;2023-05-10T05:26:22;99433.28;;;13.36
43802;BMP280;29429;51.074;13.764;2023-05-10T05:28:50;99425.94;;;13.43
43802;BMP280;29429;51.074;13.764;2023-05-10T05:31:24;99433.66;;;13.52
43802;BMP280;29429;51.074;13.764;2023-05-10T05:33:53;99426.31;;;13.59
43802;BMP280;29429;51.074;13.764;2023-05-10T05:40:39;99429.00;;;13.70
43802;BMP280;29429;51.074;13.764;2023-05-10T05:43:38;99429.69;;;13.77
43802;BMP280;29429;51.074;13.764;2023-05-10T05:50:20;99426.56;;;13.92
43802;BMP280;29429;51.074;13.764;2023-05-10T05:53:42;99427.81;;;14.01
43802;BMP280;29429;51.074;13.764;2023-05-10T05:56:11;99421.53;;;14.07
43802;BMP280;29429;51.074;13.764;2023-05-10T05:58:39;99428.75;;;14.18
43802;BMP280;29429;51.074;13.764;2023-05-10T06:01:26;99426.03;;;14.30
43802;BMP280;29429;51.074;13.764;2023-05-10T06:04:46;99418.00;;;14.41
43802;BMP280;29429;51.074;13.764;2023-05-10T06:07:21;99422.72;;;14.51
43802;BMP280;29429;51.074;13.764;2023-05-10T06:13:09;99429.34;;;14.72
43802;BMP280;29429;51.074;13.764;2023-05-10T06:15:57;99432.78;;;14.84
43802;BMP280;29429;51.074;13.764;2023-05-10T06:18:24;99436.72;;;14.93
43802;BMP280;29429;51.074;13.764;2023-05-10T06:20:53;99436.91;;;15.03
43802;BMP280;29429;51.074;13.764;2023-05-10T06:23:20;99438.72;;;15.14
43802;BMP280;29429;51.074;13.764;2023-05-10T06:25:49;99448.00;;;15.23
43802;BMP280;29429;51.074;13.764;2023-05-10T06:31:32;99448.34;;;15.43
43802;BMP280;29429;51.074;13.764;2023-05-10T06:34:02;99438.63;;;15.54
43802;BMP280;29429;51.074;13.764;2023-05-10T06:36:33;99449.75;;;15.62
43802;BMP280;29429;51.074;13.764;2023-05-10T06:39:24;99441.53;;;15.69
43802;BMP280;29429;51.074;13.764;2023-05-10T06:42:03;99447.31;;;15.77
43802;BMP280;29429;51.074;13.764;2023-05-10T06:45:07;99442.66;;;15.90
43802;BMP280;29429;51.074;13.764;2023-05-10T06:47:55;99441.75;;;16.01
43802;BMP280;29429;51.074;13.764;2023-05-10T06:50:30;99438.38;;;16.10
43802;BMP280;29429;51.074;13.764;2023-05-10T06:52:58;99445.19;;;16.18
43802;BMP280;29429;51.074;13.764;2023-05-10T06:55:26;99433.44;;;16.24
43802;BMP280;29429;51.074;13.764;2023-05-10T06:57:54;99436.53;;;16.32
43802;BMP280;29429;51.074;13.764;2023-05-10T07:00:22;99436.59;;;16.37
43802;BMP280;29429;51.074;13.764;2023-05-10T07:02:49;99434.53;;;16.44
43802;BMP280;29429;51.074;13.764;2023-05-10T07:05:17;99434.34;;;16.51
43802;BMP280;29429;51.074;13.764;2023-05-10T07:07:45;99441.19;;;16.59
43802;BMP280;29429;51.074;13.764;2023-05-10T07:10:12;99440.50;;;16.68
43802;BMP280;29429;51.074;13.764;2023-05-10T07:12:40;99435.25;;;16.78
43802;BMP280;29429;51.074;13.764;2023-05-10T07:15:08;99436.66;;;16.86
43802;BMP280;29429;51.074;13.764;2023-05-10T07:17:36;99436.72;;;16.91
43802;BMP280;29429;51.074;13.764;2023-05-10T07:20:10;99432.47;;;17.00
43802;BMP280;29429;51.074;13.764;2023-05-10T07:22:38;99435.53;;;17.09
43802;BMP280;29429;51.074;13.764;2023-05-10T07:25:06;99433.44;;;17.16
43802;BMP280;29429;51.074;13.764;2023-05-10T07:27:33;99433.53;;;17.21
43802;BMP280;29429;51.074;13.764;2023-05-10T07:30:00;99431.38;;;17.23
43802;BMP280;29429;51.074;13.764;2023-05-10T07:32:28;99430.38;;;17.29
43802;BMP280;29429;51.074;13.764;2023-05-10T07:34:56;99437.41;;;17.35
43802;BMP280;29429;51.074;13.764;2023-05-10T07:37:24;99431.50;;;17.38
43802;BMP280;29429;51.074;13.764;2023-05-10T07:39:59;99439.09;;;17.41
43802;BMP280;29429;51.074;13.764;2023-05-10T07:42:27;99439.13;;;17.46
43802;BMP280;29429;51.074;13.764;2023-05-10T07:44:55;99440.75;;;17.47
43802;BMP280;29429;51.074;13.764;2023-05-10T07:47:22;99437.56;;;17.50
43802;BMP280;29429;51.074;13.764;2023-05-10T07:49:50;99445.19;;;17.58
43802;BMP280;29429;51.074;13.764;2023-05-10T07:52:18;99432.81;;;17.62
43802;BMP280;29429;51.074;13.764;2023-05-10T07:54:48;99433.41;;;17.69
43802;BMP280;29429;51.074;13.764;2023-05-10T07:57:17;99438.84;;;17.74
43802;BMP280;29429;51.074;13.764;2023-05-10T07:59:45;99433.47;;;17.79
43802;BMP280;29429;51.074;13.764;2023-05-10T08:02:12;99430.84;;;17.84
43802;BMP280;29429;51.074;13.764;2023-05-10T08:05:03;99432.22;;;17.92
43802;BMP280;29429;51.074;13.764;2023-05-10T08:07:45;99431.16;;;17.98
43802;BMP280;29429;51.074;13.764;2023-05-10T08:10:14;99443.09;;;18.07
43802;BMP280;29429;51.074;13.764;2023-05-10T08:12:41;99431.78;;;18.10
43802;BMP280;29429;51.074;13.764;2023-05-10T08:15:15;99427.47;;;18.14
43802;BMP280;29429;51.074;13.764;2023-05-10T08:17:45;99432.63;;;18.15
43802;BMP280;29429;51.074;13.764;2023-05-10T08:20:13;99438.59;;;18.22
43802;BMP280;29429;51.074;13.764;2023-05-10T08:22:47;99427.00;;;18.27
43802;BMP280;29429;51.074;13.764;2023-05-10T08:25:17;99424.09;;;18.34
43802;BMP280;29429;51.074;13.764;2023-05-10T08:27:45;99429.22;;;18.40
43802;BMP280;29429;51.074;13.764;2023-05-10T08:30:13;99436.06;;;18.48
43802;BMP280;29429;51.074;13.764;2023-05-10T08:32:41;99446.06;;;18.52
43802;BMP280;29429;51.074;13.764;2023-05-10T08:35:09;99442.56;;;18.57
43802;BMP280;29429;51.074;13.764;2023-05-10T08:37:37;99435.84;;;18.59
43802;BMP280;29429;51.074;13.764;2023-05-10T08:40:04;99445.31;;;18.67
43802;BMP280;29429;51.074;13.764;2023-05-10T08:42:36;99442.38;;;18.73
43802;BMP280;29429;51.074;13.764;2023-05-10T08:45:05;99445.38;;;18.82
43802;BMP280;29429;51.074;13.764;2023-05-10T08:47:36;99448.63;;;18.84
43802;BMP280;29429;51.074;13.764;2023-05-10T08:50:06;99450.50;;;18.89
43802;BMP280;29429;51.074;13.764;2023-05-10T08:52:34;99444.88;;;18.95
43802;BMP280;29429;51.074;13.764;2023-05-10T08:55:06;99455.16;;;19.03
43802;BMP280;29429;51.074;13.764;2023-05-10T08:57:35;99462.75;;;19.11
43802;BMP280;29429;51.074;13.764;2023-05-10T09:00:03;99457.34;;;19.16
43802;BMP280;29429;51.074;13.764;2023-05-10T09:02:31;99453.84;;;19.21
43802;BMP280;29429;51.074;13.764;2023-05-10T09:05:24;99456.00;;;19.24
43802;BMP280;29429;51.074;13.764;2023-05-10T09:07:54;99467.66;;;19.29
43802;BMP280;29429;51.074;13.764;2023-05-10T09:10:22;99473.09;;;19.39
43802;BMP280;29429;51.074;13.764;2023-05-10T09:12:50;99471.75;;;19.47
43802;BMP280;29429;51.074;13.764;2023-05-10T09:15:18;99464.97;;;19.55
43802;BMP280;29429;51.074;13.764;2023-05-10T09:17:47;99469.59;;;19.64
43802;BMP280;29429;51.074;13.764;2023-05-10T09:20:25;99477.97;;;19.73
43802;BMP280;29429;51.074;13.764;2023-05-10T09:22:52;99472.31;;;19.64
43802;BMP280;29429;51.074;13.764;2023-05-10T09:25:20;99475.00;;;19.74
43802;BMP280;29429;51.074;13.764;2023-05-10T09:27:48;99469.88;;;19.88
43802;BMP280;29429;51.074;13.764;2023-05-10T09:30:32;99472.81;;;19.96
43802;BMP280;29429;51.074;13.764;2023-05-10T09:33:05;99473.91;;;20.00
43802;BMP280;29429;51.074;13.764;2023-05-10T09:35:39;99473.59;;;20.07
43802;BMP280;29429;51.074;13.764;2023-05-10T09:38:07;99484.44;;;20.12
43802;BMP280;29429;51.074;13.764;2023-05-10T09:40:34;99482.00;;;20.16
43802;BMP280;29429;51.074;13.764;2023-05-10T09:43:08;99477.69;;;20.25
43802;BMP280;29429;51.074;13.764;2023-05-10T09:45:36;99472.50;;;20.33
43802;BMP280;29429;51.074;13.764;2023-05-10T09:48:05;99469.81;;;20.38
43802;BMP280;29429;51.074;13.764;2023-05-10T09:50:33;99476.56;;;20.41
43802;BMP280;29429;51.074;13.764;2023-05-10T09:53:02;99479.25;;;20.51
43802;BMP280;29429;51.074;13.764;2023-05-10T09:55:40;99470.25;;;20.60
43802;BMP280;29429;51.074;13.764;2023-05-10T09:58:08;99489.19;;;20.71
43802;BMP280;29429;51.074;13.764;2023-05-10T10:00:43;99479.13;;;20.76
43802;BMP280;29429;51.074;13.764;2023-05-10T10:03:19;99476.13;;;20.83
43802;BMP280;29429;51.074;13.764;2023-05-10T10:05:48;99476.66;;;20.85
43802;BMP280;29429;51.074;13.764;2023-05-10T10:08:17;99474.47;;;20.87
43802;BMP280;29429;51.074;13.764;2023-05-10T10:10:44;99462.53;;;20.93
43802;BMP280;29429;51.074;13.764;2023-05-10T10:13:14;99465.16;;;21.03
43802;BMP280;29429;51.074;13.764;2023-05-10T10:15:42;99464.91;;;21.09
43802;BMP280;29429;51.074;13.764;2023-05-10T10:18:13;99467.84;;;21.18
43802;BMP280;29429;51.074;13.764;2023-05-10T10:20:42;99464.25;;;21.28
43802;BMP280;29429;51.074;13.764;2023-05-10T10:23:10;99456.03;;;21.38
43802;BMP280;29429;51.074;13.764;2023-05-10T10:25:38;99464.94;;;21.43
43802;BMP280;29429;51.074;13.764;2023-05-10T10:30:51;99455.47;;;21.41
43802;BMP280;29429;51.074;13.764;2023-05-10T10:36:43;99461.72;;;21.41
43802;BMP280;29429;51.074;13.764;2023-05-10T10:39:15;99452.47;;;21.42
43802;BMP280;29429;51.074;13.764;2023-05-10T10:41:54;99461.16;;;21.44
43802;BMP280;29429;51.074;13.764;2023-05-10T10:49:50;99467.06;;;21.51
43802;BMP280;29429;51.074;13.764;2023-05-10T10:52:30;99467.31;;;21.55
43802;BMP280;29429;51.074;13.764;2023-05-10T10:55:07;99466.72;;;21.58
43802;BMP280;29429;51.074;13.764;2023-05-10T10:57:52;99470.22;;;21.63
43802;BMP280;29429;51.074;13.764;2023-05-10T11:00:24;99471.78;;;21.69
43802;BMP280;29429;51.074;13.764;2023-05-10T11:03:03;99463.59;;;21.74
43802;BMP280;29429;51.074;13.764;2023-05-10T11:08:30;99467.31;;;21.89
43802;BMP280;29429;51.074;13.764;2023-05-10T11:11:05;99466.81;;;21.81
43802;BMP280;29429;51.074;13.764;2023-05-10T11:13:46;99457.31;;;21.79
43802;BMP280;29429;51.074;13.764;2023-05-10T11:16:22;99463.28;;;21.86
43802;BMP280;29429;51.074;13.764;2023-05-10T11:21:32;99463.88;;;22.07
43802;BMP280;29429;51.074;13.764;2023-05-10T11:24:01;99459.47;;;22.11
43802;BMP280;29429;51.074;13.764;2023-05-10T11:26:35;99467.59;;;22.16
43802;BMP280;29429;51.074;13.764;2023-05-10T11:29:03;99476.47;;;22.26
43802;BMP280;29429;51.074;13.764;2023-05-10T11:31:32;99459.56;;;22.29
43802;BMP280;29429;51.074;13.764;2023-05-10T11:34:01;99472.25;;;22.39
43802;BMP280;29429;51.074;13.764;2023-05-10T11:36:35;99465.53;;;22.55
43802;BMP280;29429;51.074;13.764;2023-05-10T11:39:04;99461.41;;;22.63
43802;BMP280;29429;51.074;13.764;2023-05-10T11:41:33;99467.66;;;22.63
43802;BMP280;29429;51.074;13.764;2023-05-10T11:44:00;99467.28;;;22.70
43802;BMP280;29429;51.074;13.764;2023-05-10T11:46:59;99470.41;;;22.82
43802;BMP280;29429;51.074;13.764;2023-05-10T11:49:57;99465.91;;;22.91
43802;BMP280;29429;51.074;13.764;2023-05-10T11:52:26;99465.03;;;22.95
43802;BMP280;29429;51.074;13.764;2023-05-10T11:54:54;99455.69;;;23.01
43802;BMP280;29429;51.074;13.764;2023-05-10T11:57:26;99465.84;;;22.96
43802;BMP280;29429;51.074;13.764;2023-05-10T12:00:00;99466.28;;;22.84
43802;BMP280;29429;51.074;13.764;2023-05-10T12:02:40;99467.38;;;22.83
43802;BMP280;29429;51.074;13.764;2023-05-10T12:05:10;99464.66;;;22.83
43802;BMP280;29429;51.074;13.764;2023-05-10T12:07:37;99477.38;;;22.88
43802;BMP280;29429;51.074;13.764;2023-05-10T12:10:15;99477.31;;;22.93
43802;BMP280;29429;51.074;13.764;2023-05-10T12:12:46;99473.66;;;23.02
43802;BMP280;29429;51.074;13.764;2023-05-10T12:15:28;99470.56;;;23.09
43802;BMP280;29429;51.074;13.764;2023-05-10T12:17:59;99474.59;;;23.12
43802;BMP280;29429;51.074;13.764;2023-05-10T12:20:28;99468.50;;;23.20
43802;BMP280;29429;51.074;13.764;2023-05-10T12:22:57;99475.50;;;23.26
43802;BMP280;29429;51.074;13.764;2023-05-10T12:25:34;99474.34;;;23.32
43802;BMP280;29429;51.074;13.764;2023-05-10T12:28:04;99470.78;;;23.31
43802;BMP280;29429;51.074;13.764;2023-05-10T12:30:34;99474.34;;;23.32
43802;BMP280;29429;51.074;13.764;2023-05-10T12:33:13;99479.19;;;23.35
43802;BMP280;29429;51.074;13.764;2023-05-10T12:35:48;99481.84;;;23.40
43802;BMP280;29429;51.074;13.764;2023-05-10T12:38:49;99479.34;;;23.43
43802;BMP280;29429;51.074;13.764;2023-05-10T12:41:18;99479.47;;;23.52
43802;BMP280;29429;51.074;13.764;2023-05-10T12:43:45;99482.63;;;23.59
43802;BMP280;29429;51.074;13.764;2023-05-10T12:46:17;99474.19;;;23.60
43802;BMP280;29429;51.074;13.764;2023-05-10T12:48:47;99478.72;;;23.65
43802;BMP280;29429;51.074;13.764;2023-05-10T12:51:26;99488.81;;;23.64
43802;BMP280;29429;51.074;13.764;2023-05-10T12:53:53;99485.81;;;23.66
43802;BMP280;29429;51.074;13.764;2023-05-10T12:56:21;99488.81;;;23.64
43802;BMP280;29429;51.074;13.764;2023-05-10T12:58:49;99492.44;;;23.60
43802;BMP280;29429;51.074;13.764;2023-05-10T13:01:24;99484.56;;;23.58
43802;BMP280;29429;51.074;13.764;2023-05-10T13:03:58;99495.38;;;23.63
43802;BMP280;29429;51.074;13.764;2023-05-10T13:06:27;99487.41;;;23.67
43802;BMP280;29429;51.074;13.764;2023-05-10T13:09:12;99495.53;;;23.72
43802;BMP280;29429;51.074;13.764;2023-05-10T13:11:40;99495.44;;;23.77
43802;BMP280;29429;51.074;13.764;2023-05-10T13:14:07;99490.72;;;23.83
43802;BMP280;29429;51.074;13.764;2023-05-10T13:16:35;99483.31;;;23.83
43802;BMP280;29429;51.074;13.764;2023-05-10T13:19:03;99486.50;;;23.90
43802;BMP280;29429;51.074;13.764;2023-05-10T13:21:34;99489.63;;;23.97
43802;BMP280;29429;51.074;13.764;2023-05-10T13:24:03;99484.69;;;23.99
43802;BMP280;29429;51.074;13.764;2023-05-10T13:26:30;99494.41;;;24.05
43802;BMP280;29429;51.074;13.764;2023-05-10T13:28:58;99496.56;;;24.08
43802;BMP280;29429;51.074;13.764;2023-05-10T13:31:29;99484.00;;;24.07
43802;BMP280;29429;51.074;13.764;2023-05-10T13:33:56;99484.31;;;24.06
43802;BMP280;29429;51.074;13.764;2023-05-10T13:37:02;99480.28;;;24.03
43802;BMP280;29429;51.074;13.764;2023-05-10T13:39:33;99486.31;;;24.00
43802;BMP280;29429;51.074;13.764;2023-05-10T13:42:01;99480.88;;;24.00
43802;BMP280;29429;51.074;13.764;2023-05-10T13:44:30;99479.44;;;24.03
43802;BMP280;29429;51.074;13.764;2023-05-10T13:46:57;99477.22;;;24.05
43802;BMP280;29429;51.074;13.764;2023-05-10T13:49:35;99471.66;;;23.96
43802;BMP280;29429;51.074;13.764;2023-05-10T13:52:06;99472.97;;;23.85
43802;BMP280;29429;51.074;13.764;2023-05-10T13:55:09;99469.78;;;23.78
43802;BMP280;29429;51.074;13.764;2023-05-10T13:58:22;99479.09;;;23.77
43802;BMP280;29429;51.074;13.764;2023-05-10T14:02:04;99477.38;;;23.81
43802;BMP280;29429;51.074;13.764;2023-05-10T14:05:16;99475.16;;;23.83
43802;BMP280;29429;51.074;13.764;2023-05-10T14:07:55;99477.78;;;23.88
43802;BMP280;29429;51.074;13.764;2023-05-10T14:11:23;99478.50;;;23.94
43802;BMP280;29429;51.074;13.764;2023-05-10T14:13:54;99479.81;;;23.96
43802;BMP280;29429;51.074;13.764;2023-05-10T14:16:21;99471.06;;;23.99
43802;BMP280;29429;51.074;13.764;2023-05-10T14:18:49;99473.63;;;24.09
43802;BMP280;29429;51.074;13.764;2023-05-10T14:21:19;99473.47;;;24.19
43802;BMP280;29429;51.074;13.764;2023-05-10T14:23:46;99476.09;;;24.25
43802;BMP280;29429;51.074;13.764;2023-05-10T14:26:13;99467.47;;;24.17
43802;BMP280;29429;51.074;13.764;2023-05-10T14:28:45;99473.84;;;24.13
43802;BMP280;29429;51.074;13.764;2023-05-10T14:31:32;99468.72;;;24.11
43802;BMP280;29429;51.074;13.764;2023-05-10T14:34:09;99477.53;;;24.03
43802;BMP280;29429;51.074;13.764;2023-05-10T14:37:06;99478.72;;;23.97
43802;BMP280;29429;51.074;13.764;2023-05-10T14:39:34;99470.56;;;23.97
43802;BMP280;29429;51.074;13.764;2023-05-10T14:42:27;99470.97;;;24.04
43802;BMP280;29429;51.074;13.764;2023-05-10T14:44:55;99470.19;;;24.04
43802;BMP280;29429;51.074;13.764;2023-05-10T14:47:23;99476.41;;;24.04
43802;BMP280;29429;51.074;13.764;2023-05-10T14:49:51;99475.50;;;23.95
43802;BMP280;29429;51.074;13.764;2023-05-10T14:52:52;99469.34;;;23.90
43802;BMP280;29429;51.074;13.764;2023-05-10T14:55:27;99476.88;;;23.79
43802;BMP280;29429;51.074;13.764;2023-05-10T14:57:55;99476.97;;;23.74
43802;BMP280;29429;51.074;13.764;2023-05-10T15:00:26;99475.59;;;23.58
43802;BMP280;29429;51.074;13.764;2023-05-10T15:02:58;99480.63;;;23.27
43802;BMP280;29429;51.074;13.764;2023-05-10T15:17:39;99494.63;;;22.55
43802;BMP280;29429;51.074;13.764;2023-05-10T15:20:38;99497.78;;;22.38
43802;BMP280;29429;51.074;13.764;2023-05-10T15:24:45;99505.25;;;21.99
43802;BMP280;29429;51.074;13.764;2023-05-10T15:27:16;99498.03;;;21.79
43802;BMP280;29429;51.074;13.764;2023-05-10T15:29:44;99506.75;;;21.81
43802;BMP280;29429;51.074;13.764;2023-05-10T15:32:17;99503.16;;;21.85
43802;BMP280;29429;51.074;13.764;2023-05-10T15:34:53;99506.72;;;21.86
43802;BMP280;29429;51.074;13.764;2023-05-10T15:37:22;99517.88;;;21.79
43802;BMP280;29429;51.074;13.764;2023-05-10T15:39:54;99513.25;;;21.80
43802;BMP280;29429;51.074;13.764;2023-05-10T15:42:27;99512.38;;;21.84
43802;BMP280;29429;51.074;13.764;2023-05-10T15:44:59;99513.53;;;21.78
43802;BMP280;29429;51.074;13.764;2023-05-10T15:54:59;99520.59;;;21.41
43802;BMP280;29429;51.074;13.764;2023-05-10T15:57:46;99526.28;;;21.44
43802;BMP280;29429;51.074;13.764;2023-05-10T16:04:30;99531.19;;;21.37
43802;BMP280;29429;51.074;13.764;2023-05-10T16:07:40;99538.31;;;21.28
43802;BMP280;29429;51.074;13.764;2023-05-10T16:10:19;99540.50;;;21.21
43802;BMP280;29429;51.074;13.764;2023-05-10T16:16:26;99536.47;;;21.13
43802;BMP280;29429;51.074;13.764;2023-05-10T16:19:28;99540.59;;;21.01
43802;BMP280;29429;51.074;13.764;2023-05-10T16:22:30;99540.59;;;20.96
43802;BMP280;29429;51.074;13.764;2023-05-10T16:25:11;99548.75;;;20.91
43802;BMP280;29429;51.074;13.764;2023-05-10T16:27:39;99554.22;;;20.71
43802;BMP280;29429;51.074;13.764;2023-05-10T16:34:44;99556.47;;;20.53
43802;BMP280;29429;51.074;13.764;2023-05-10T16:38:17;99565.16;;;20.40
43802;BMP280;29429;51.074;13.764;2023-05-10T16:40:48;99558.13;;;20.34
43802;BMP280;29429;51.074;13.764;2023-05-10T16:43:17;99565.16;;;20.35